sensor_id;sensor_type;location;lat;lon;timestamp;temperature;humidity
8400;DHT22;4237;47.030;15.396;2023-02-18T00:01:42;4.70;99.90
8400;DHT22;4237;47.030;15.396;2023-02-18T00:04:11;4.80;99.90
8400;DHT22;4237;47.030;15.396;2023-02-18T00:06:39;4.80;99.90
8400;DHT22;4237;47.030;15.396;2023-02-18T00:09:09;4.80;99.90
8400;DHT22;4237;47.030;15.396;2023-02-18T00:11:38;4.80;99.90
8400;DHT22;4237;47.030;15.396;2023-02-18T00:14:10;4.70;99.90
8400;DHT22;4237;47.030;15.396;2023-02-18T00:16:39;4.60;99.90
8400;DHT22;4237;47.030;15.396;2023-02-18T00:19:11;4.60;99.90
8400;DHT22;4237;47.030;15.396;2023-02-18T00:21:40;4.60;99.90
8400;DHT22;4237;47.030;15.396;2023-02-18T00:24:10;4.60;99.90
8400;DHT22;4237;47.030;15.396;2023-02-18T00:26:39;4.50;99.90
8400;DHT22;4237;47.030;15.396;2023-02-18T00:29:08;4.50;99.90
8400;DHT22;4237;47.030;15.396;2023-02-18T00:31:37;4.50;99.90
8400;DHT22;4237;47.030;15.396;2023-02-18T00:34:07;4.50;99.90
8400;DHT22;4237;47.030;15.396;2023-02-18T00:36:35;4.50;99.90
8400;DHT22;4237;47.030;15.396;2023-02-18T00:39:07;4.60;99.90
8400;DHT22;4237;47.030;15.396;2023-02-18T00:41:36;4.60;99.90
8400;DHT22;4237;47.030;15.396;2023-02-18T00:44:05;4.50;99.90
8400;DHT22;4237;47.030;15.396;2023-02-18T00:46:34;4.50;99.90
8400;DHT22;4237;47.030;15.396;2023-02-18T00:49:03;4.50;99.90
8400;DHT22;4237;47.030;15.396;2023-02-18T00:51:33;4.50;99.90
8400;DHT22;4237;47.030;15.396;2023-02-18T00:54:02;4.50;99.90
8400;DHT22;4237;47.030;15.396;2023-02-18T00:56:31;4.40;99.90
8400;DHT22;4237;47.030;15.396;2023-02-18T00:58:59;4.40;99.90
8400;DHT22;4237;47.030;15.396;2023-02-18T01:01:28;4.40;99.90
8400;DHT22;4237;47.030;15.396;2023-02-18T01:03:57;4.40;99.90
8400;DHT22;4237;47.030;15.396;2023-02-18T01:06:25;4.40;99.90
8400;DHT22;4237;47.030;15.396;2023-02-18T01:08:54;4.40;99.90
8400;DHT22;4237;47.030;15.396;2023-02-18T01:11:23;4.50;99.90
8400;DHT22;4237;47.030;15.396;2023-02-18T01:13:52;4.40;99.90
8400;DHT22;4237;47.030;15.396;2023-02-18T01:16:21;4.40;99.90
8400;DHT22;4237;47.030;15.396;2023-02-18T01:18:49;4.30;99.90
8400;DHT22;4237;47.030;15.396;2023-02-18T01:21:18;4.30;99.90
8400;DHT22;4237;47.030;15.396;2023-02-18T01:23:47;4.30;99.90
8400;DHT22;4237;47.030;15.396;2023-02-18T01:26:15;4.30;99.90
8400;DHT22;4237;47.030;15.396;2023-02-18T01:28:44;4.30;99.90
8400;DHT22;4237;47.030;15.396;2023-02-18T01:31:14;4.20;99.90
8400;DHT22;4237;47.030;15.396;2023-02-18T01:33:43;4.20;99.90
8400;DHT22;4237;47.030;15.396;2023-02-18T01:36:12;4.10;99.90
8400;DHT22;4237;47.030;15.396;2023-02-18T01:38:40;4.10;99.90
8400;DHT22;4237;47.030;15.396;2023-02-18T01:41:10;4.10;99.90
8400;DHT22;4237;47.030;15.396;2023-02-18T01:43:39;4.00;99.90
8400;DHT22;4237;47.030;15.396;2023-02-18T01:48:51;4.00;99.90
8400;DHT22;4237;47.030;15.396;2023-02-18T01:51:35;4.00;99.90
8400;DHT22;4237;47.030;15.396;2023-02-18T01:54:09;4.00;99.90
8400;DHT22;4237;47.030;15.396;2023-02-18T01:59:31;3.90;99.90
8400;DHT22;4237;47.030;15.396;2023-02-18T02:02:00;3.90;99.90
8400;DHT22;4237;47.030;15.396;2023-02-18T02:04:29;3.90;99.90
8400;DHT22;4237;47.030;15.396;2023-02-18T02:06:58;3.90;99.90
8400;DHT22;4237;47.030;15.396;2023-02-18T02:09:28;3.90;99.90
8400;DHT22;4237;47.030;15.396;2023-02-18T02:12:12;3.80;99.90
8400;DHT22;4237;47.030;15.396;2023-02-18T02:53:18;3.40;99.90
8400;DHT22;4237;47.030;15.396;2023-02-18T02:55:47;3.30;99.90
8400;DHT22;4237;47.030;15.396;2023-02-18T02:58:17;3.30;99.90
8400;DHT22;4237;47.030;15.396;2023-02-18T03:09:51;3.40;99.90
8400;DHT22;4237;47.030;15.396;2023-02-18T03:12:33;3.40;99.90
8400;DHT22;4237;47.030;15.396;2023-02-18T03:15:10;3.40;99.90
8400;DHT22;4237;47.030;15.396;2023-02-18T03:20:40;3.40;99.90
8400;DHT22;4237;47.030;15.396;2023-02-18T03:23:07;3.40;99.90
8400;DHT22;4237;47.030;15.396;2023-02-18T03:25:38;3.60;99.90
8400;DHT22;4237;47.030;15.396;2023-02-18T03:28:13;3.50;99.90
8400;DHT22;4237;47.030;15.396;2023-02-18T03:30:50;3.50;99.90
8400;DHT22;4237;47.030;15.396;2023-02-18T03:33:39;3.70;99.90
8400;DHT22;4237;47.030;15.396;2023-02-18T03:36:05;3.80;99.90
8400;DHT22;4237;47.030;15.396;2023-02-18T03:38:53;3.80;99.90
8400;DHT22;4237;47.030;15.396;2023-02-18T03:41:17;4.00;99.90
8400;DHT22;4237;47.030;15.396;2023-02-18T03:43:53;4.10;99.90
8400;DHT22;4237;47.030;15.396;2023-02-18T03:46:23;4.10;99.90
8400;DHT22;4237;47.030;15.396;2023-02-18T03:48:51;4.20;99.90
8400;DHT22;4237;47.030;15.396;2023-02-18T03:51:21;4.10;99.90
8400;DHT22;4237;47.030;15.396;2023-02-18T03:53:49;4.20;99.90
8400;DHT22;4237;47.030;15.396;2023-02-18T03:56:19;4.10;99.90
8400;DHT22;4237;47.030;15.396;2023-02-18T03:58:49;4.10;99.90
8400;DHT22;4237;47.030;15.396;2023-02-18T04:01:17;4.00;99.90
8400;DHT22;4237;47.030;15.396;2023-02-18T04:03:46;4.00;99.90
8400;DHT22;4237;47.030;15.396;2023-02-18T04:06:15;4.10;99.90
8400;DHT22;4237;47.030;15.396;2023-02-18T04:08:43;4.10;99.90
8400;DHT22;4237;47.030;15.396;2023-02-18T04:11:12;4.20;99.90
8400;DHT22;4237;47.030;15.396;2023-02-18T04:13:41;4.20;99.90
8400;DHT22;4237;47.030;15.396;2023-02-18T04:16:10;4.20;99.90
8400;DHT22;4237;47.030;15.396;2023-02-18T04:18:39;4.20;99.90
8400;DHT22;4237;47.030;15.396;2023-02-18T04:21:07;4.20;99.90
8400;DHT22;4237;47.030;15.396;2023-02-18T04:23:36;4.20;99.90
8400;DHT22;4237;47.030;15.396;2023-02-18T04:26:05;4.20;99.90
8400;DHT22;4237;47.030;15.396;2023-02-18T04:28:33;4.20;99.90
8400;DHT22;4237;47.030;15.396;2023-02-18T04:31:02;4.10;99.90
8400;DHT22;4237;47.030;15.396;2023-02-18T04:33:31;4.10;99.90
8400;DHT22;4237;47.030;15.396;2023-02-18T04:35:59;4.10;99.90
8400;DHT22;4237;47.030;15.396;2023-02-18T04:38:28;4.10;99.90
8400;DHT22;4237;47.030;15.396;2023-02-18T04:40:56;4.10;99.90
8400;DHT22;4237;47.030;15.396;2023-02-18T04:43:25;4.10;99.90
8400;DHT22;4237;47.030;15.396;2023-02-18T04:45:54;4.10;99.90
8400;DHT22;4237;47.030;15.396;2023-02-18T04:48:22;4.20;99.90
8400;DHT22;4237;47.030;15.396;2023-02-18T04:50:51;4.20;99.90
8400;DHT22;4237;47.030;15.396;2023-02-18T04:53:20;4.20;99.90
8400;DHT22;4237;47.030;15.396;2023-02-18T04:55:52;4.20;99.90
8400;DHT22;4237;47.030;15.396;2023-02-18T04:58:21;4.20;99.90
8400;DHT22;4237;47.030;15.396;2023-02-18T05:00:50;4.10;99.90
8400;DHT22;4237;47.030;15.396;2023-02-18T05:03:19;4.10;99.90
8400;DHT22;4237;47.030;15.396;2023-02-18T05:05:48;4.10;99.90
8400;DHT22;4237;47.030;15.396;2023-02-18T05:08:16;4.00;99.90
8400;DHT22;4237;47.030;15.396;2023-02-18T05:10:45;4.00;99.90
8400;DHT22;4237;47.030;15.396;2023-02-18T05:13:14;3.90;99.90
8400;DHT22;4237;47.030;15.396;2023-02-18T05:15:42;3.90;99.90
8400;DHT22;4237;47.030;15.396;2023-02-18T05:18:11;4.00;99.90
8400;DHT22;4237;47.030;15.396;2023-02-18T05:20:40;4.00;99.90
8400;DHT22;4237;47.030;15.396;2023-02-18T05:23:08;3.90;99.90
8400;DHT22;4237;47.030;15.396;2023-02-18T05:25:37;3.80;99.90
8400;DHT22;4237;47.030;15.396;2023-02-18T05:28:05;3.80;99.90
8400;DHT22;4237;47.030;15.396;2023-02-18T05:30:34;3.80;99.90
8400;DHT22;4237;47.030;15.396;2023-02-18T05:33:03;3.70;99.90
8400;DHT22;4237;47.030;15.396;2023-02-18T05:35:31;3.70;99.90
8400;DHT22;4237;47.030;15.396;2023-02-18T05:38:00;3.70;99.90
8400;DHT22;4237;47.030;15.396;2023-02-18T05:40:29;3.60;99.90
8400;DHT22;4237;47.030;15.396;2023-02-18T05:42:58;3.70;99.90
8400;DHT22;4237;47.030;15.396;2023-02-18T05:45:26;3.70;99.90
8400;DHT22;4237;47.030;15.396;2023-02-18T05:47:55;3.60;99.90
8400;DHT22;4237;47.030;15.396;2023-02-18T05:50:24;3.70;99.90
8400;DHT22;4237;47.030;15.396;2023-02-18T05:52:52;3.70;99.90
8400;DHT22;4237;47.030;15.396;2023-02-18T05:55:21;3.70;99.90
8400;DHT22;4237;47.030;15.396;2023-02-18T05:57:50;3.80;99.90
8400;DHT22;4237;47.030;15.396;2023-02-18T06:00:21;3.70;99.90
8400;DHT22;4237;47.030;15.396;2023-02-18T06:02:50;3.80;99.90
8400;DHT22;4237;47.030;15.396;2023-02-18T06:05:18;3.70;99.90
8400;DHT22;4237;47.030;15.396;2023-02-18T06:07:47;3.80;99.90
8400;DHT22;4237;47.030;15.396;2023-02-18T06:10:16;3.70;99.90
8400;DHT22;4237;47.030;15.396;2023-02-18T06:12:47;3.70;99.90
8400;DHT22;4237;47.030;15.396;2023-02-18T06:15:16;3.80;99.90
8400;DHT22;4237;47.030;15.396;2023-02-18T06:17:45;3.80;99.90
8400;DHT22;4237;47.030;15.396;2023-02-18T06:20:13;3.90;99.90
8400;DHT22;4237;47.030;15.396;2023-02-18T06:22:42;3.90;99.90
8400;DHT22;4237;47.030;15.396;2023-02-18T06:25:10;3.90;99.90
8400;DHT22;4237;47.030;15.396;2023-02-18T06:27:39;3.90;99.90
8400;DHT22;4237;47.030;15.396;2023-02-18T06:30:10;3.90;99.90
8400;DHT22;4237;47.030;15.396;2023-02-18T06:32:38;4.00;99.90
8400;DHT22;4237;47.030;15.396;2023-02-18T06:35:07;4.00;99.90
8400;DHT22;4237;47.030;15.396;2023-02-18T06:37:36;4.00;99.90
8400;DHT22;4237;47.030;15.396;2023-02-18T06:40:06;4.00;99.90
8400;DHT22;4237;47.030;15.396;2023-02-18T06:42:35;4.10;99.90
8400;DHT22;4237;47.030;15.396;2023-02-18T06:45:04;4.10;99.90
8400;DHT22;4237;47.030;15.396;2023-02-18T06:47:34;4.30;99.90
8400;DHT22;4237;47.030;15.396;2023-02-18T06:50:05;4.40;99.90
8400;DHT22;4237;47.030;15.396;2023-02-18T06:52:35;4.40;99.90
8400;DHT22;4237;47.030;15.396;2023-02-18T06:55:06;4.40;99.90
8400;DHT22;4237;47.030;15.396;2023-02-18T06:57:35;4.50;99.90
8400;DHT22;4237;47.030;15.396;2023-02-18T07:00:05;4.60;99.90
8400;DHT22;4237;47.030;15.396;2023-02-18T07:02:34;4.70;99.90
8400;DHT22;4237;47.030;15.396;2023-02-18T07:05:03;4.50;99.90
8400;DHT22;4237;47.030;15.396;2023-02-18T07:07:32;4.70;99.90
8400;DHT22;4237;47.030;15.396;2023-02-18T07:10:00;4.70;99.90
8400;DHT22;4237;47.030;15.396;2023-02-18T07:12:29;4.90;99.90
8400;DHT22;4237;47.030;15.396;2023-02-18T07:14:58;5.10;99.90
8400;DHT22;4237;47.030;15.396;2023-02-18T07:17:26;5.20;99.90
8400;DHT22;4237;47.030;15.396;2023-02-18T07:19:55;5.30;99.90
8400;DHT22;4237;47.030;15.396;2023-02-18T07:22:23;5.60;99.90
8400;DHT22;4237;47.030;15.396;2023-02-18T07:24:53;5.90;99.90
8400;DHT22;4237;47.030;15.396;2023-02-18T07:27:23;5.90;99.90
8400;DHT22;4237;47.030;15.396;2023-02-18T07:29:54;6.20;99.90
8400;DHT22;4237;47.030;15.396;2023-02-18T07:32:22;6.40;99.90
8400;DHT22;4237;47.030;15.396;2023-02-18T07:34:52;6.60;99.90
8400;DHT22;4237;47.030;15.396;2023-02-18T07:37:20;6.80;99.90
8400;DHT22;4237;47.030;15.396;2023-02-18T07:39:49;6.80;99.90
8400;DHT22;4237;47.030;15.396;2023-02-18T07:42:17;7.20;99.90
8400;DHT22;4237;47.030;15.396;2023-02-18T07:44:46;7.40;99.90
8400;DHT22;4237;47.030;15.396;2023-02-18T07:47:16;7.90;99.90
8400;DHT22;4237;47.030;15.396;2023-02-18T07:49:47;8.10;99.90
8400;DHT22;4237;47.030;15.396;2023-02-18T07:52:16;8.40;99.90
8400;DHT22;4237;47.030;15.396;2023-02-18T07:54:45;8.60;99.90
8400;DHT22;4237;47.030;15.396;2023-02-18T07:57:13;8.80;99.90
8400;DHT22;4237;47.030;15.396;2023-02-18T07:59:42;8.90;99.90
8400;DHT22;4237;47.030;15.396;2023-02-18T08:02:19;9.00;99.90
8400;DHT22;4237;47.030;15.396;2023-02-18T08:04:48;9.00;99.90
8400;DHT22;4237;47.030;15.396;2023-02-18T08:07:19;9.10;99.90
8400;DHT22;4237;47.030;15.396;2023-02-18T08:09:48;9.10;99.90
8400;DHT22;4237;47.030;15.396;2023-02-18T08:12:17;9.30;99.90
8400;DHT22;4237;47.030;15.396;2023-02-18T08:14:46;9.30;99.90
8400;DHT22;4237;47.030;15.396;2023-02-18T08:17:14;9.50;99.90
8400;DHT22;4237;47.030;15.396;2023-02-18T08:19:44;9.70;99.90
8400;DHT22;4237;47.030;15.396;2023-02-18T08:22:12;9.60;99.90
8400;DHT22;4237;47.030;15.396;2023-02-18T08:24:41;9.80;99.90
8400;DHT22;4237;47.030;15.396;2023-02-18T08:27:09;10.00;99.90
8400;DHT22;4237;47.030;15.396;2023-02-18T08:29:40;10.10;99.90
8400;DHT22;4237;47.030;15.396;2023-02-18T08:32:08;10.20;99.90
8400;DHT22;4237;47.030;15.396;2023-02-18T08:34:37;10.30;99.90
8400;DHT22;4237;47.030;15.396;2023-02-18T08:37:05;11.00;99.90
8400;DHT22;4237;47.030;15.396;2023-02-18T08:39:35;11.20;99.90
8400;DHT22;4237;47.030;15.396;2023-02-18T08:42:05;11.60;99.90
8400;DHT22;4237;47.030;15.396;2023-02-18T08:44:33;11.80;99.90
8400;DHT22;4237;47.030;15.396;2023-02-18T08:47:02;11.90;99.90
8400;DHT22;4237;47.030;15.396;2023-02-18T08:49:31;12.00;99.90
8400;DHT22;4237;47.030;15.396;2023-02-18T08:51:59;12.10;99.90
8400;DHT22;4237;47.030;15.396;2023-02-18T08:54:28;12.50;99.90
8400;DHT22;4237;47.030;15.396;2023-02-18T08:56:57;13.00;99.90
8400;DHT22;4237;47.030;15.396;2023-02-18T08:59:26;13.70;99.90
8400;DHT22;4237;47.030;15.396;2023-02-18T09:01:54;14.30;99.90
8400;DHT22;4237;47.030;15.396;2023-02-18T09:04:23;13.90;99.90
8400;DHT22;4237;47.030;15.396;2023-02-18T09:06:52;15.10;99.90
8400;DHT22;4237;47.030;15.396;2023-02-18T09:09:21;15.80;99.90
8400;DHT22;4237;47.030;15.396;2023-02-18T09:11:49;16.70;99.90
8400;DHT22;4237;47.030;15.396;2023-02-18T09:14:18;17.90;99.90
8400;DHT22;4237;47.030;15.396;2023-02-18T09:16:46;18.70;99.90
8400;DHT22;4237;47.030;15.396;2023-02-18T09:19:16;20.30;99.90
8400;DHT22;4237;47.030;15.396;2023-02-18T09:21:45;22.20;99.90
8400;DHT22;4237;47.030;15.396;2023-02-18T09:24:14;24.00;99.90
8400;DHT22;4237;47.030;15.396;2023-02-18T09:26:43;24.60;99.70
8400;DHT22;4237;47.030;15.396;2023-02-18T09:29:13;26.70;96.70
8400;DHT22;4237;47.030;15.396;2023-02-18T09:31:41;26.30;95.60
8400;DHT22;4237;47.030;15.396;2023-02-18T09:34:10;26.90;93.90
8400;DHT22;4237;47.030;15.396;2023-02-18T09:36:38;27.20;92.70
8400;DHT22;4237;47.030;15.396;2023-02-18T09:39:07;28.20;90.70
8400;DHT22;4237;47.030;15.396;2023-02-18T09:41:46;29.20;87.80
8400;DHT22;4237;47.030;15.396;2023-02-18T09:44:26;29.90;84.50
8400;DHT22;4237;47.030;15.396;2023-02-18T09:49:36;30.50;77.20
8400;DHT22;4237;47.030;15.396;2023-02-18T09:52:31;31.70;74.50
8400;DHT22;4237;47.030;15.396;2023-02-18T09:54:56;31.60;73.90
8400;DHT22;4237;47.030;15.396;2023-02-18T09:57:28;30.70;75.40
8400;DHT22;4237;47.030;15.396;2023-02-18T10:00:04;31.50;74.00
8400;DHT22;4237;47.030;15.396;2023-02-18T10:02:28;31.70;73.60
8400;DHT22;4237;47.030;15.396;2023-02-18T10:04:57;32.10;69.90
8400;DHT22;4237;47.030;15.396;2023-02-18T10:07:31;32.00;69.90
8400;DHT22;4237;47.030;15.396;2023-02-18T10:10:04;31.90;70.10
8400;DHT22;4237;47.030;15.396;2023-02-18T10:12:31;31.00;70.90
8400;DHT22;4237;47.030;15.396;2023-02-18T10:15:00;30.60;73.20
8400;DHT22;4237;47.030;15.396;2023-02-18T10:17:31;30.20;73.20
8400;DHT22;4237;47.030;15.396;2023-02-18T10:20:02;29.10;73.10
8400;DHT22;4237;47.030;15.396;2023-02-18T10:22:31;27.60;78.50
8400;DHT22;4237;47.030;15.396;2023-02-18T10:25:02;25.60;82.00
8400;DHT22;4237;47.030;15.396;2023-02-18T10:27:34;25.30;87.00
8400;DHT22;4237;47.030;15.396;2023-02-18T10:30:20;25.60;88.00
8400;DHT22;4237;47.030;15.396;2023-02-18T10:32:48;27.50;82.40
8400;DHT22;4237;47.030;15.396;2023-02-18T10:35:37;29.00;77.90
8400;DHT22;4237;47.030;15.396;2023-02-18T10:38:17;28.70;76.40
8400;DHT22;4237;47.030;15.396;2023-02-18T10:41:11;28.60;76.60
8400;DHT22;4237;47.030;15.396;2023-02-18T10:46:15;31.20;70.60
8400;DHT22;4237;47.030;15.396;2023-02-18T10:48:55;31.20;70.20
8400;DHT22;4237;47.030;15.396;2023-02-18T10:51:24;30.10;72.30
8400;DHT22;4237;47.030;15.396;2023-02-18T10:53:54;30.60;72.50
8400;DHT22;4237;47.030;15.396;2023-02-18T10:56:46;31.40;71.00
8400;DHT22;4237;47.030;15.396;2023-02-18T10:59:18;32.30;68.60
8400;DHT22;4237;47.030;15.396;2023-02-18T11:01:53;30.50;69.90
8400;DHT22;4237;47.030;15.396;2023-02-18T11:04:33;30.40;71.90
8400;DHT22;4237;47.030;15.396;2023-02-18T11:06:54;30.50;70.40
8400;DHT22;4237;47.030;15.396;2023-02-18T11:12:03;28.30;75.50
8400;DHT22;4237;47.030;15.396;2023-02-18T11:14:43;27.60;76.80
8400;DHT22;4237;47.030;15.396;2023-02-18T11:17:20;26.40;80.60
8400;DHT22;4237;47.030;15.396;2023-02-18T11:19:58;27.40;79.90
8400;DHT22;4237;47.030;15.396;2023-02-18T11:22:31;28.50;74.70
8400;DHT22;4237;47.030;15.396;2023-02-18T11:25:03;29.30;75.70
8400;DHT22;4237;47.030;15.396;2023-02-18T11:27:41;29.90;74.40
8400;DHT22;4237;47.030;15.396;2023-02-18T11:32:55;28.50;75.60
8400;DHT22;4237;47.030;15.396;2023-02-18T11:35:26;26.30;81.30
8400;DHT22;4237;47.030;15.396;2023-02-18T11:37:57;26.40;85.00
8400;DHT22;4237;47.030;15.396;2023-02-18T11:40:32;25.20;89.00
8400;DHT22;4237;47.030;15.396;2023-02-18T11:43:14;23.50;92.50
8400;DHT22;4237;47.030;15.396;2023-02-18T11:45:45;21.50;96.00
8400;DHT22;4237;47.030;15.396;2023-02-18T11:48:16;20.00;99.60
8400;DHT22;4237;47.030;15.396;2023-02-18T11:50:49;20.00;99.90
8400;DHT22;4237;47.030;15.396;2023-02-18T11:53:25;19.90;99.90
8400;DHT22;4237;47.030;15.396;2023-02-18T11:55:57;19.50;99.90
8400;DHT22;4237;47.030;15.396;2023-02-18T11:58:26;19.10;99.90
8400;DHT22;4237;47.030;15.396;2023-02-18T12:00:57;19.70;99.90
8400;DHT22;4237;47.030;15.396;2023-02-18T12:03:54;19.80;99.90
8400;DHT22;4237;47.030;15.396;2023-02-18T12:06:22;19.50;99.90
8400;DHT22;4237;47.030;15.396;2023-02-18T12:09:20;20.60;99.90
8400;DHT22;4237;47.030;15.396;2023-02-18T12:11:55;21.20;99.90
8400;DHT22;4237;47.030;15.396;2023-02-18T12:14:23;20.90;99.90
8400;DHT22;4237;47.030;15.396;2023-02-18T12:17:22;22.20;99.90
8400;DHT22;4237;47.030;15.396;2023-02-18T12:22:52;22.10;99.00
8400;DHT22;4237;47.030;15.396;2023-02-18T12:25:39;22.20;99.50
8400;DHT22;4237;47.030;15.396;2023-02-18T12:28:36;22.10;98.90
8400;DHT22;4237;47.030;15.396;2023-02-18T12:31:21;21.40;98.40
8400;DHT22;4237;47.030;15.396;2023-02-18T12:39:34;21.70;99.30
8400;DHT22;4237;47.030;15.396;2023-02-18T12:42:20;21.80;98.10
8400;DHT22;4237;47.030;15.396;2023-02-18T12:45:12;20.90;98.80
8400;DHT22;4237;47.030;15.396;2023-02-18T12:47:41;20.60;99.90
8400;DHT22;4237;47.030;15.396;2023-02-18T12:50:34;20.60;99.90
8400;DHT22;4237;47.030;15.396;2023-02-18T12:53:22;21.00;99.90
8400;DHT22;4237;47.030;15.396;2023-02-18T12:55:59;20.70;99.90
8400;DHT22;4237;47.030;15.396;2023-02-18T13:04:26;19.30;99.90
8400;DHT22;4237;47.030;15.396;2023-02-18T13:12:47;18.10;99.90
8400;DHT22;4237;47.030;15.396;2023-02-18T13:15:24;18.20;99.90
8400;DHT22;4237;47.030;15.396;2023-02-18T13:17:55;18.10;99.90
8400;DHT22;4237;47.030;15.396;2023-02-18T13:23:05;17.70;99.90
8400;DHT22;4237;47.030;15.396;2023-02-18T13:25:36;18.40;99.90
8400;DHT22;4237;47.030;15.396;2023-02-18T13:28:26;18.20;99.90
8400;DHT22;4237;47.030;15.396;2023-02-18T13:31:13;17.70;99.90
8400;DHT22;4237;47.030;15.396;2023-02-18T13:36:27;16.60;99.90
8400;DHT22;4237;47.030;15.396;2023-02-18T13:39:03;16.00;99.90
8400;DHT22;4237;47.030;15.396;2023-02-18T13:41:40;15.70;99.90
8400;DHT22;4237;47.030;15.396;2023-02-18T13:46:57;15.90;99.90
8400;DHT22;4237;47.030;15.396;2023-02-18T13:49:27;16.00;99.90
8400;DHT22;4237;47.030;15.396;2023-02-18T13:51:57;16.10;99.90
8400;DHT22;4237;47.030;15.396;2023-02-18T13:54:44;15.80;99.90
8400;DHT22;4237;47.030;15.396;2023-02-18T13:57:19;15.30;99.90
8400;DHT22;4237;47.030;15.396;2023-02-18T14:00:14;14.80;99.90
8400;DHT22;4237;47.030;15.396;2023-02-18T14:05:20;15.30;99.90
8400;DHT22;4237;47.030;15.396;2023-02-18T14:08:49;17.10;99.90
8400;DHT22;4237;47.030;15.396;2023-02-18T14:10:30;17.40;99.90
8400;DHT22;4237;47.030;15.396;2023-02-18T14:20:47;18.90;99.90
8400;DHT22;4237;47.030;15.396;2023-02-18T14:25:57;18.00;99.90
8400;DHT22;4237;47.030;15.396;2023-02-18T14:31:22;16.60;99.90
8400;DHT22;4237;47.030;15.396;2023-02-18T14:34:15;15.70;99.90
8400;DHT22;4237;47.030;15.396;2023-02-18T14:39:41;15.20;99.90
8400;DHT22;4237;47.030;15.396;2023-02-18T14:45:22;15.10;99.90
8400;DHT22;4237;47.030;15.396;2023-02-18T14:50:42;15.60;99.90
8400;DHT22;4237;47.030;15.396;2023-02-18T14:53:17;16.50;99.90
8400;DHT22;4237;47.030;15.396;2023-02-18T14:55:58;17.00;99.90
8400;DHT22;4237;47.030;15.396;2023-02-18T14:58:31;17.20;99.90
8400;DHT22;4237;47.030;15.396;2023-02-18T15:01:17;17.00;99.90
8400;DHT22;4237;47.030;15.396;2023-02-18T15:03:47;16.70;99.90
8400;DHT22;4237;47.030;15.396;2023-02-18T15:08:59;16.20;99.90
8400;DHT22;4237;47.030;15.396;2023-02-18T15:11:37;16.00;99.90
8400;DHT22;4237;47.030;15.396;2023-02-18T15:14:17;15.50;99.90
8400;DHT22;4237;47.030;15.396;2023-02-18T15:16:43;14.30;99.90
8400;DHT22;4237;47.030;15.396;2023-02-18T15:19:15;13.70;99.90
8400;DHT22;4237;47.030;15.396;2023-02-18T15:21:48;13.70;99.90
8400;DHT22;4237;47.030;15.396;2023-02-18T15:24:23;14.00;99.90
8400;DHT22;4237;47.030;15.396;2023-02-18T15:26:55;14.30;99.90
8400;DHT22;4237;47.030;15.396;2023-02-18T15:29:27;14.70;99.90
8400;DHT22;4237;47.030;15.396;2023-02-18T15:31:57;14.80;99.90
8400;DHT22;4237;47.030;15.396;2023-02-18T15:34:35;14.80;99.90
8400;DHT22;4237;47.030;15.396;2023-02-18T15:37:06;14.80;99.90
8400;DHT22;4237;47.030;15.396;2023-02-18T15:39:37;14.50;99.90
8400;DHT22;4237;47.030;15.396;2023-02-18T15:42:28;14.40;99.90
8400;DHT22;4237;47.030;15.396;2023-02-18T15:45:08;14.30;99.90
8400;DHT22;4237;47.030;15.396;2023-02-18T15:47:35;14.10;99.90
8400;DHT22;4237;47.030;15.396;2023-02-18T15:50:13;13.20;99.90
8400;DHT22;4237;47.030;15.396;2023-02-18T15:52:38;12.70;99.90
8400;DHT22;4237;47.030;15.396;2023-02-18T15:55:11;12.20;99.90
8400;DHT22;4237;47.030;15.396;2023-02-18T15:57:40;11.90;99.90
8400;DHT22;4237;47.030;15.396;2023-02-18T16:00:18;11.60;99.90
8400;DHT22;4237;47.030;15.396;2023-02-18T16:03:43;11.30;99.90
8400;DHT22;4237;47.030;15.396;2023-02-18T16:05:27;11.00;99.90
8400;DHT22;4237;47.030;15.396;2023-02-18T16:08:00;10.40;99.90
8400;DHT22;4237;47.030;15.396;2023-02-18T16:13:05;9.90;99.90
8400;DHT22;4237;47.030;15.396;2023-02-18T16:15:39;9.70;99.90
8400;DHT22;4237;47.030;15.396;2023-02-18T16:21:04;9.30;99.90
8400;DHT22;4237;47.030;15.396;2023-02-18T16:23:43;9.10;99.90
8400;DHT22;4237;47.030;15.396;2023-02-18T16:28:49;8.70;99.90
8400;DHT22;4237;47.030;15.396;2023-02-18T16:31:20;8.60;99.90
8400;DHT22;4237;47.030;15.396;2023-02-18T16:33:49;8.40;99.90
8400;DHT22;4237;47.030;15.396;2023-02-18T16:36:18;8.30;99.90
8400;DHT22;4237;47.030;15.396;2023-02-18T16:38:49;8.20;99.90
8400;DHT22;4237;47.030;15.396;2023-02-18T16:41:18;8.10;99.90
8400;DHT22;4237;47.030;15.396;2023-02-18T16:43:47;8.00;99.90
8400;DHT22;4237;47.030;15.396;2023-02-18T16:46:20;7.80;99.90
8400;DHT22;4237;47.030;15.396;2023-02-18T16:48:51;7.80;99.90
8400;DHT22;4237;47.030;15.396;2023-02-18T16:51:31;7.60;99.90
8400;DHT22;4237;47.030;15.396;2023-02-18T16:54:01;7.50;99.90
8400;DHT22;4237;47.030;15.396;2023-02-18T16:56:34;7.30;99.90
8400;DHT22;4237;47.030;15.396;2023-02-18T16:59:03;7.20;99.90
8400;DHT22;4237;47.030;15.396;2023-02-18T17:01:40;7.20;99.90
8400;DHT22;4237;47.030;15.396;2023-02-18T17:04:16;7.10;99.90
8400;DHT22;4237;47.030;15.396;2023-02-18T17:06:46;7.00;99.90
8400;DHT22;4237;47.030;15.396;2023-02-18T17:09:20;6.90;99.90
8400;DHT22;4237;47.030;15.396;2023-02-18T17:11:52;6.70;99.90
8400;DHT22;4237;47.030;15.396;2023-02-18T17:14:22;6.70;99.90
8400;DHT22;4237;47.030;15.396;2023-02-18T17:16:52;6.60;99.90
8400;DHT22;4237;47.030;15.396;2023-02-18T17:19:22;6.60;99.90
8400;DHT22;4237;47.030;15.396;2023-02-18T17:21:54;6.50;99.90
8400;DHT22;4237;47.030;15.396;2023-02-18T17:24:23;6.40;99.90
8400;DHT22;4237;47.030;15.396;2023-02-18T17:26:52;6.40;99.90
8400;DHT22;4237;47.030;15.396;2023-02-18T17:29:26;6.40;99.90
8400;DHT22;4237;47.030;15.396;2023-02-18T17:31:56;6.30;99.90
8400;DHT22;4237;47.030;15.396;2023-02-18T17:34:27;6.20;99.90
8400;DHT22;4237;47.030;15.396;2023-02-18T17:36:58;6.10;99.90
8400;DHT22;4237;47.030;15.396;2023-02-18T17:39:28;5.90;99.90
8400;DHT22;4237;47.030;15.396;2023-02-18T17:41:58;5.90;99.90
8400;DHT22;4237;47.030;15.396;2023-02-18T17:44:28;5.80;99.90
8400;DHT22;4237;47.030;15.396;2023-02-18T17:46:57;5.60;99.90
8400;DHT22;4237;47.030;15.396;2023-02-18T17:49:27;5.60;99.90
8400;DHT22;4237;47.030;15.396;2023-02-18T17:51:56;5.60;99.90
8400;DHT22;4237;47.030;15.396;2023-02-18T17:54:25;5.50;99.90
8400;DHT22;4237;47.030;15.396;2023-02-18T17:56:58;5.40;99.90
8400;DHT22;4237;47.030;15.396;2023-02-18T17:59:29;5.40;99.90
8400;DHT22;4237;47.030;15.396;2023-02-18T18:01:59;5.40;99.90
8400;DHT22;4237;47.030;15.396;2023-02-18T18:04:29;5.30;99.90
8400;DHT22;4237;47.030;15.396;2023-02-18T18:06:59;5.20;99.90
8400;DHT22;4237;47.030;15.396;2023-02-18T18:09:28;5.10;99.90
8400;DHT22;4237;47.030;15.396;2023-02-18T18:11:57;5.10;99.90
8400;DHT22;4237;47.030;15.396;2023-02-18T18:14:27;5.10;99.90
8400;DHT22;4237;47.030;15.396;2023-02-18T18:16:57;5.10;99.90
8400;DHT22;4237;47.030;15.396;2023-02-18T18:19:27;4.90;99.90
8400;DHT22;4237;47.030;15.396;2023-02-18T18:21:58;4.90;99.90
8400;DHT22;4237;47.030;15.396;2023-02-18T18:24:28;4.90;99.90
8400;DHT22;4237;47.030;15.396;2023-02-18T18:26:57;4.90;99.90
8400;DHT22;4237;47.030;15.396;2023-02-18T18:29:26;4.80;99.90
8400;DHT22;4237;47.030;15.396;2023-02-18T18:31:55;4.90;99.90
8400;DHT22;4237;47.030;15.396;2023-02-18T18:34:25;4.80;99.90